| time (UTC) | temp C | wind direction | speed KPH | gust KPH | rain 1hr cm | rain 24hr cm | rain mn cm | humidity % | barometer mb |
| 20260507051449 | 12 | 352 | 29.0 | 45.1 | 0.00 | 0.00 | 0.00 | 69 | 1009.7 |
| 20260507050945 | 12 | 352 | 29.0 | 45.1 | 0.00 | 0.00 | 0.00 | 66 | 1009.6 |
| 20260507050439 | 12 | 347 | 20.9 | 29.0 | 0.00 | 0.00 | 0.00 | 64 | 1009.6 |
| 20260507045937 | 13 | 24 | 14.5 | 20.9 | 0.00 | 0.00 | 0.00 | 63 | 1009.3 |
| 20260507045439 | 13 | 9 | 9.7 | 14.5 | 0.00 | 0.00 | 0.00 | 61 | 1008.9 |
| 20260507045202 | 13 | 32 | 8.0 | 14.5 | 0.00 | 0.00 | 0.00 | 61 | 1008.8 |
| 20260507044436 | 13 | 34 | 6.4 | 8.0 | 0.00 | 0.00 | 0.00 | 61 | 1008.7 |
| 20260507043939 | 13 | 352 | 3.2 | 8.0 | 0.00 | 0.00 | 0.00 | 60 | 1008.4 |
| 20260507043432 | 13 | 101 | 1.6 | 17.7 | 0.00 | 0.00 | 0.00 | 57 | 1007.9 |
| 20260507043201 | 13 | 42 | 9.7 | 19.3 | 0.00 | 0.00 | 0.00 | 57 | 1008.4 |
| 20260507042434 | 13 | 11 | 9.7 | 20.9 | 0.00 | 0.00 | 0.00 | 58 | 1008.6 |
| 20260507041938 | 13 | 9 | 16.1 | 20.9 | 0.00 | 0.00 | 0.00 | 59 | 1008.7 |
| 20260507041425 | 13 | 5 | 11.3 | 17.7 | 0.00 | 0.00 | 0.00 | 60 | 1008.9 |
| 20260507040925 | 13 | 352 | 9.7 | 19.3 | 0.00 | 0.00 | 0.00 | 62 | 1008.9 |
| 20260507040417 | 13 | 13 | 12.9 | 27.4 | 0.00 | 0.00 | 0.00 | 60 | 1008.9 |
| 20260507035916 | 14 | 11 | 14.5 | 27.4 | 0.00 | 0.00 | 0.00 | 55 | 1008.8 |
| 20260507035416 | 14 | 34 | 9.7 | 22.5 | 0.00 | 0.00 | 0.00 | 52 | 1008.8 |
| 20260507034916 | 14 | 13 | 14.5 | 22.5 | 0.00 | 0.00 | 0.00 | 48 | 1008.6 |
| 20260507034418 | 14 | 9 | 8.0 | 16.1 | 0.00 | 0.00 | 0.00 | 45 | 1008.6 |
| 20260507033915 | 15 | 22 | 6.4 | 16.1 | 0.00 | 0.00 | 0.00 | 45 | 1008.5 |
| 20260507033418 | 15 | 32 | 6.4 | 11.3 | 0.00 | 0.00 | 0.00 | 44 | 1008.2 |
| 20260507032915 | 15 | 47 | 1.6 | 9.7 | 0.00 | 0.00 | 0.00 | 43 | 1007.8 |
| 20260507032410 | 15 | 81 | 4.8 | 11.3 | 0.00 | 0.00 | 0.00 | 43 | 1007.7 |
| 20260507031905 | 15 | 98 | 4.8 | 11.3 | 0.00 | 0.00 | 0.00 | 42 | 1007.6 |
| 20260507031407 | 15 | 104 | 4.8 | 9.7 | 0.00 | 0.00 | 0.00 | 42 | 1007.5 |
| 20260507031354 | 16 | 63 | 4.8 | 9.7 | 0.00 | 0.00 | 0.00 | 41 | 1007.5 |
| 20260507030358 | 16 | 88 | 1.6 | 11.3 | 0.00 | 0.00 | 0.00 | 40 | 1007.6 |
| 20260507025857 | 16 | 96 | 4.8 | 11.3 | 0.00 | 0.00 | 0.00 | 40 | 1007.4 |
| 20260507025349 | 16 | 75 | 4.8 | 12.9 | 0.00 | 0.00 | 0.00 | 40 | 1007.4 |
| 20260507024856 | 16 | 12 | 3.2 | 14.5 | 0.00 | 0.00 | 0.00 | 39 | 1007.5 |
| 20260507024347 | 16 | 77 | 6.4 | 14.5 | 0.00 | 0.00 | 0.00 | 38 | 1007.5 |
| 20260507023842 | 16 | 46 | 1.6 | 14.5 | 0.00 | 0.00 | 0.00 | 37 | 1007.5 |
| 20260507023341 | 17 | 62 | 4.8 | 14.5 | 0.00 | 0.00 | 0.00 | 35 | 1007.5 |
| 20260507022840 | 17 | 32 | 3.2 | 9.7 | 0.00 | 0.00 | 0.00 | 34 | 1007.4 |
| 20260507022343 | 17 | 80 | 3.2 | 9.7 | 0.00 | 0.00 | 0.00 | 34 | 1007.1 |
| 20260507022100 | 17 | 102 | 3.2 | 16.1 | 0.00 | 0.00 | 0.00 | 33 | 1006.8 |
| 20260507021337 | 17 | 105 | 9.7 | 19.3 | 0.00 | 0.00 | 0.00 | 33 | 1006.7 |
| 20260507021056 | 18 | 137 | 11.3 | 19.3 | 0.00 | 0.00 | 0.00 | 32 | 1006.6 |
| 20260507020615 | 18 | 113 | 9.7 | 19.3 | 0.00 | 0.00 | 0.00 | 31 | 1006.6 |
| 20260507015844 | 18 | 128 | 12.9 | 19.3 | 0.00 | 0.00 | 0.00 | 30 | 1006.7 |
| 20260507015333 | 18 | 119 | 12.9 | 20.9 | 0.00 | 0.00 | 0.00 | 29 | 1006.6 |
| 20260507014828 | 18 | 93 | 14.5 | 25.7 | 0.00 | 0.00 | 0.00 | 28 | 1006.7 |
| 20260507014323 | 18 | 103 | 14.5 | 25.7 | 0.00 | 0.00 | 0.00 | 28 | 1006.8 |
| 20260507013820 | 18 | 108 | 14.5 | 22.5 | 0.00 | 0.00 | 0.00 | 28 | 1006.8 |
| 20260507013319 | 18 | 107 | 6.4 | 24.1 | 0.00 | 0.00 | 0.00 | 27 | 1006.9 |
| 20260507012818 | 18 | 80 | 11.3 | 24.1 | 0.00 | 0.00 | 0.00 | 27 | 1006.7 |
| 20260507012319 | 18 | 61 | 14.5 | 24.1 | 0.00 | 0.00 | 0.00 | 28 | 1006.7 |
| 20260507012034 | 18 | 132 | 3.2 | 12.9 | 0.00 | 0.00 | 0.00 | 30 | 1006.8 |
| 20260507011309 | 18 | 75 | 1.6 | 12.9 | 0.00 | 0.00 | 0.00 | 30 | 1006.8 |
| 20260507010811 | 18 | 70 | 1.6 | 9.7 | 0.00 | 0.00 | 0.00 | 29 | 1006.8 |
| 20260507010306 | 19 | 92 | 3.2 | 9.7 | 0.00 | 0.00 | 0.00 | 29 | 1006.8 |
| 20260507005800 | 19 | 49 | 6.4 | 17.7 | 0.00 | 0.00 | 0.00 | 29 | 1006.8 |
| 20260507005257 | 19 | 47 | 4.8 | 17.7 | 0.00 | 0.00 | 0.00 | 28 | 1006.7 |
| 20260507004756 | 19 | 122 | 3.2 | 17.7 | 0.00 | 0.00 | 0.00 | 29 | 1006.8 |
| 20260507004254 | 19 | 101 | 9.7 | 19.3 | 0.00 | 0.00 | 0.00 | 29 | 1006.8 |
| 20260507003748 | 19 | 110 | 6.4 | 19.3 | 0.00 | 0.00 | 0.00 | 28 | 1006.8 |
| 20260507003248 | 19 | 15 | 9.7 | 24.1 | 0.00 | 0.00 | 0.00 | 26 | 1006.9 |
| 20260507002751 | 20 | 44 | 11.3 | 24.1 | 0.00 | 0.00 | 0.00 | 25 | 1006.9 |
| 20260507002248 | 20 | 29 | 6.4 | 19.3 | 0.00 | 0.00 | 0.00 | 25 | 1006.7 |
| 20260507001738 | 20 | 5 | 6.4 | 19.3 | 0.00 | 0.00 | 0.00 | 25 | 1006.6 |
| 20260507001238 | 20 | 54 | 3.2 | 22.5 | 0.00 | 0.00 | 0.00 | 25 | 1006.6 |
| 20260507000733 | 20 | 55 | 9.7 | 22.5 | 0.00 | 0.00 | 0.00 | 24 | 1006.4 |
| 20260507000234 | 20 | 338 | 11.3 | 22.5 | 0.00 | 0.00 | 0.00 | 25 | 1006.3 |
| 20260506235727 | 21 | 83 | 11.3 | 20.9 | 0.00 | 0.00 | 0.00 | 25 | 1006.1 |
| 20260506235226 | 21 | 32 | 9.7 | 20.9 | 0.00 | 0.00 | 0.00 | 24 | 1005.8 |
| 20260506234726 | 21 | 30 | 11.3 | 22.5 | 0.00 | 0.00 | 0.00 | 24 | 1005.8 |
| 20260506234226 | 21 | 350 | 12.9 | 22.5 | 0.00 | 0.00 | 0.00 | 24 | 1005.7 |
| 20260506233718 | 21 | 33 | 12.9 | 20.9 | 0.00 | 0.00 | 0.00 | 25 | 1005.7 |
| 20260506233216 | 21 | 62 | 12.9 | 22.5 | 0.00 | 0.00 | 0.00 | 26 | 1005.8 |
| 20260506232940 | 21 | 27 | 12.9 | 22.5 | 0.00 | 0.00 | 0.00 | 25 | 1005.8 |
| 20260506232215 | 21 | 11 | 11.3 | 20.9 | 0.00 | 0.00 | 0.00 | 25 | 1005.8 |
| 20260506231710 | 21 | 5 | 6.4 | 20.9 | 0.00 | 0.00 | 0.00 | 24 | 1005.8 |
| 20260506231205 | 21 | 28 | 3.2 | 19.3 | 0.00 | 0.00 | 0.00 | 24 | 1005.8 |
| 20260506230925 | 21 | 53 | 9.7 | 20.9 | 0.00 | 0.00 | 0.00 | 24 | 1005.7 |
| 20260506230203 | 22 | 352 | 9.7 | 20.9 | 0.00 | 0.00 | 0.00 | 23 | 1005.6 |
| 20260506225703 | 22 | 352 | 4.8 | 17.7 | 0.00 | 0.00 | 0.00 | 24 | 1005.7 |
| 20260506225206 | 22 | 63 | 8.0 | 17.7 | 0.00 | 0.00 | 0.00 | 23 | 1005.8 |
| 20260506224704 | 22 | 86 | 6.4 | 19.3 | 0.00 | 0.00 | 0.00 | 25 | 1005.8 |
| 20260506224201 | 22 | 41 | 9.7 | 20.9 | 0.00 | 0.00 | 0.00 | 23 | 1005.8 |
| 20260506223700 | 22 | 17 | 12.9 | 24.1 | 0.00 | 0.00 | 0.00 | 25 | 1005.8 |
| 20260506223419 | 22 | 13 | 11.3 | 24.1 | 0.00 | 0.00 | 0.00 | 24 | 1005.9 |
| 20260506222649 | 22 | 40 | 16.1 | 25.7 | 0.00 | 0.00 | 0.00 | 24 | 1005.9 |
| 20260506222147 | 22 | 24 | 11.3 | 25.7 | 0.00 | 0.00 | 0.00 | 25 | 1005.8 |
| 20260506221918 | 22 | 28 | 12.9 | 27.4 | 0.00 | 0.00 | 0.00 | 24 | 1005.9 |
| 20260506221149 | 22 | 47 | 9.7 | 27.4 | 0.00 | 0.00 | 0.00 | 24 | 1006.1 |
| 20260506220644 | 22 | 13 | 16.1 | 30.6 | 0.00 | 0.00 | 0.00 | 24 | 1006.1 |
| 20260506220145 | 22 | 14 | 16.1 | 30.6 | 0.00 | 0.00 | 0.00 | 24 | 1006.1 |
| 20260506215916 | 22 | 30 | 11.3 | 24.1 | 0.00 | 0.00 | 0.00 | 23 | 1006.1 |
| 20260506215144 | 22 | 57 | 12.9 | 25.7 | 0.00 | 0.00 | 0.00 | 23 | 1006.2 |
| 20260506214641 | 23 | 17 | 16.1 | 25.7 | 0.00 | 0.00 | 0.00 | 24 | 1006.2 |
| 20260506214138 | 23 | 5 | 20.9 | 30.6 | 0.00 | 0.00 | 0.00 | 23 | 1006.2 |
| 20260506213641 | 23 | 28 | 11.3 | 30.6 | 0.00 | 0.00 | 0.00 | 25 | 1006.2 |
| 20260506213138 | 23 | 5 | 20.9 | 30.6 | 0.00 | 0.00 | 0.00 | 22 | 1006.3 |
| 20260506212635 | 24 | 44 | 14.5 | 27.4 | 0.00 | 0.00 | 0.00 | 24 | 1006.2 |
| 20260506212133 | 24 | 47 | 14.5 | 24.1 | 0.00 | 0.00 | 0.00 | 22 | 1006.2 |
| 20260506211856 | 24 | 22 | 14.5 | 25.7 | 0.00 | 0.00 | 0.00 | 23 | 1006.1 |
| 20260506211358 | 23 | 351 | 12.9 | 25.7 | 0.00 | 0.00 | 0.00 | 23 | 1006.2 |
| 20260506210625 | 23 | 15 | 14.5 | 25.7 | 0.00 | 0.00 | 0.00 | 24 | 1006.3 |
| 20260506210344 | 23 | 26 | 17.7 | 25.7 | 0.00 | 0.00 | 0.00 | 24 | 1006.3 |
| 20260506205621 | 23 | 35 | 16.1 | 25.7 | 0.00 | 0.00 | 0.00 | 26 | 1006.3 |
| 20260506205114 | 23 | 0 | 14.5 | 22.5 | 0.00 | 0.00 | 0.00 | 24 | 1006.3 |
| 20260506204828 | 22 | 5 | 14.5 | 25.7 | 0.00 | 0.00 | 0.00 | 26 | 1006.4 |
| 20260506204717 | 23 | 19 | 14.5 | 25.7 | 0.00 | 0.00 | 0.00 | 25 | 1006.4 |
| 20260506203613 | 22 | 11 | 8.0 | 24.1 | 0.00 | 0.00 | 0.00 | 25 | 1006.4 |
| 20260506203109 | 22 | 23 | 17.7 | 24.1 | 0.00 | 0.00 | 0.00 | 24 | 1006.4 |
| 20260506202609 | 23 | 20 | 11.3 | 24.1 | 0.00 | 0.00 | 0.00 | 23 | 1006.6 |
| 20260506202113 | 23 | 15 | 14.5 | 24.1 | 0.00 | 0.00 | 0.00 | 24 | 1006.5 |
| 20260506201610 | 23 | 86 | 12.9 | 24.1 | 0.00 | 0.00 | 0.00 | 22 | 1006.6 |
| 20260506201109 | 23 | 22 | 14.5 | 25.7 | 0.00 | 0.00 | 0.00 | 22 | 1006.6 |
| 20260506200605 | 23 | 13 | 16.1 | 25.7 | 0.00 | 0.00 | 0.00 | 23 | 1006.6 |
| 20260506200059 | 23 | 34 | 8.0 | 27.4 | 0.00 | 0.00 | 0.00 | 24 | 1006.7 |
| 20260506195559 | 23 | 5 | 16.1 | 27.4 | 0.00 | 0.00 | 0.00 | 23 | 1006.8 |
| 20260506195317 | 23 | 352 | 19.3 | 25.7 | 0.00 | 0.00 | 0.00 | 25 | 1006.7 |
| 20260506194555 | 23 | 352 | 14.5 | 20.9 | 0.00 | 0.00 | 0.00 | 26 | 1006.9 |
| 20260506194050 | 23 | 17 | 16.1 | 24.1 | 0.00 | 0.00 | 0.00 | 24 | 1006.9 |
| 20260506193548 | 23 | 10 | 17.7 | 24.1 | 0.00 | 0.00 | 0.00 | 23 | 1006.9 |
| 20260506193320 | 23 | 10 | 14.5 | 24.1 | 0.00 | 0.00 | 0.00 | 25 | 1006.9 |
| 20260506192545 | 22 | 0 | 4.8 | 24.1 | 0.00 | 0.00 | 0.00 | 26 | 1006.9 |
| 20260506192044 | 22 | 36 | 9.7 | 20.9 | 0.00 | 0.00 | 0.00 | 22 | 1007.1 |
| 20260506191536 | 22 | 20 | 11.3 | 20.9 | 0.00 | 0.00 | 0.00 | 24 | 1007.1 |
| 20260506191037 | 22 | 0 | 14.5 | 22.5 | 0.00 | 0.00 | 0.00 | 22 | 1007.1 |
| 20260506190539 | 23 | 349 | 9.7 | 22.5 | 0.00 | 0.00 | 0.00 | 23 | 1007.2 |
| 20260506190037 | 23 | 5 | 6.4 | 20.9 | 0.00 | 0.00 | 0.00 | 25 | 1007.3 |
| 20260506185535 | 22 | 17 | 9.7 | 19.3 | 0.00 | 0.00 | 0.00 | 24 | 1007.4 |
| 20260506185040 | 22 | 19 | 9.7 | 19.3 | 0.00 | 0.00 | 0.00 | 25 | 1007.4 |
| 20260506184530 | 22 | 0 | 14.5 | 29.0 | 0.00 | 0.00 | 0.00 | 22 | 1007.4 |
| 20260506184027 | 22 | 343 | 17.7 | 29.0 | 0.00 | 0.00 | 0.00 | 22 | 1007.4 |
| 20260506183527 | 22 | 352 | 11.3 | 19.3 | 0.00 | 0.00 | 0.00 | 24 | 1007.4 |
| 20260506183254 | 22 | 49 | 6.4 | 19.3 | 0.00 | 0.00 | 0.00 | 22 | 1007.5 |
| 20260506182523 | 22 | 21 | 6.4 | 19.3 | 0.00 | 0.00 | 0.00 | 23 | 1007.6 |
| 20260506182022 | 22 | 315 | 6.4 | 19.3 | 0.00 | 0.00 | 0.00 | 25 | 1007.6 |
| 20260506181521 | 22 | 352 | 12.9 | 19.3 | 0.00 | 0.00 | 0.00 | 25 | 1007.7 |
| 20260506181022 | 22 | 5 | 8.0 | 12.9 | 0.00 | 0.00 | 0.00 | 23 | 1007.8 |
| 20260506180512 | 22 | 66 | 1.6 | 12.9 | 0.00 | 0.00 | 0.00 | 23 | 1007.7 |
| 20260506180008 | 22 | 38 | 6.4 | 12.9 | 0.00 | 0.00 | 0.00 | 22 | 1007.8 |
| 20260506175505 | 22 | 115 | 6.4 | 16.1 | 0.00 | 0.00 | 0.00 | 22 | 1007.8 |
| 20260506174959 | 21 | 11 | 8.0 | 16.1 | 0.00 | 0.00 | 0.00 | 26 | 1007.8 |
| 20260506174729 | 21 | 82 | 3.2 | 12.9 | 0.00 | 0.00 | 0.00 | 24 | 1007.9 |
| 20260506173958 | 21 | 113 | 4.8 | 8.0 | 0.00 | 0.00 | 0.00 | 24 | 1008.2 |
| 20260506173714 | 21 | 217 | 1.6 | 12.9 | 0.00 | 0.00 | 0.00 | 22 | 1008.2 |
| 20260506172951 | 21 | 140 | 6.4 | 12.9 | 0.00 | 0.00 | 0.00 | 24 | 1008.3 |
| 20260506172449 | 21 | 115 | 8.0 | 12.9 | 0.00 | 0.00 | 0.00 | 23 | 1008.3 |
| 20260506171951 | 20 | 121 | 6.4 | 12.9 | 0.00 | 0.00 | 0.00 | 24 | 1008.2 |
| 20260506171454 | 20 | 90 | 1.6 | 6.4 | 0.00 | 0.00 | 0.00 | 24 | 1008.3 |
| 20260506170950 | 20 | 5 | 3.2 | 9.7 | 0.00 | 0.00 | 0.00 | 24 | 1008.4 |
| 20260506170445 | 20 | 49 | 3.2 | 9.7 | 0.00 | 0.00 | 0.00 | 23 | 1008.5 |
| 20260506165944 | 20 | 76 | 4.8 | 12.9 | 0.00 | 0.00 | 0.00 | 24 | 1008.5 |
| 20260506165659 | 20 | 304 | 4.8 | 12.9 | 0.00 | 0.00 | 0.00 | 27 | 1008.5 |
| 20260506164937 | 20 | 200 | 1.6 | 8.0 | 0.00 | 0.00 | 0.00 | 23 | 1008.6 |
| 20260506164436 | 19 | 259 | 3.2 | 12.9 | 0.00 | 0.00 | 0.00 | 26 | 1008.7 |
| 20260506164158 | 18 | 153 | 8.0 | 12.9 | 0.00 | 0.00 | 0.00 | 26 | 1008.7 |
| 20260506163701 | 18 | 167 | 1.6 | 8.0 | 0.00 | 0.00 | 0.00 | 26 | 1008.8 |
| 20260506163201 | 18 | 119 | 1.6 | 11.3 | 0.00 | 0.00 | 0.00 | 26 | 1008.8 |
| 20260506162426 | 18 | 189 | 6.4 | 11.3 | 0.00 | 0.00 | 0.00 | 27 | 1008.9 |
| 20260506161925 | 18 | 134 | 4.8 | 11.3 | 0.00 | 0.00 | 0.00 | 28 | 1009.0 |
| 20260506161429 | 17 | 245 | 4.8 | 11.3 | 0.00 | 0.00 | 0.00 | 30 | 1009.0 |
| 20260506161141 | 17 | 194 | 3.2 | 11.3 | 0.00 | 0.00 | 0.00 | 30 | 1009.2 |
| 20260506160645 | 16 | 119 | 3.2 | 8.0 | 0.00 | 0.00 | 0.00 | 30 | 1009.2 |
| 20260506155914 | 16 | 123 | 1.6 | 8.0 | 0.00 | 0.00 | 0.00 | 30 | 1009.3 |
| 20260506155413 | 16 | 246 | 3.2 | 11.3 | 0.00 | 0.00 | 0.00 | 33 | 1009.3 |
| 20260506154907 | 16 | 145 | 3.2 | 11.3 | 0.00 | 0.00 | 0.00 | 33 | 1009.4 |
| 20260506154402 | 15 | 172 | 0.0 | 8.0 | 0.00 | 0.00 | 0.00 | 34 | 1009.4 |
| 20260506153900 | 15 | 180 | 3.2 | 9.7 | 0.00 | 0.00 | 0.00 | 34 | 1009.5 |
| 20260506153357 | 14 | 208 | 3.2 | 9.7 | 0.00 | 0.00 | 0.00 | 35 | 1009.5 |
| 20260506152852 | 13 | 176 | 4.8 | 8.0 | 0.00 | 0.00 | 0.00 | 35 | 1009.6 |
| 20260506152352 | 13 | 185 | 0.0 | 6.4 | 0.00 | 0.00 | 0.00 | 36 | 1009.7 |
| 20260506152130 | 13 | 196 | 0.0 | 6.4 | 0.00 | 0.00 | 0.00 | 36 | 1009.8 |
| 20260506151351 | 12 | 171 | 3.2 | 6.4 | 0.00 | 0.00 | 0.00 | 38 | 1009.8 |
| 20260506150847 | 12 | 234 | 1.6 | 8.0 | 0.00 | 0.00 | 0.00 | 38 | 1009.8 |
| 20260506150621 | 11 | 187 | 3.2 | 8.0 | 0.00 | 0.00 | 0.00 | 39 | 1009.8 |
| 20260506145844 | 11 | 177 | 3.2 | 9.7 | 0.00 | 0.00 | 0.00 | 41 | 1009.9 |
| 20260506145343 | 10 | 182 | 3.2 | 9.7 | 0.00 | 0.00 | 0.00 | 42 | 1009.9 |
| 20260506144843 | 10 | 171 | 6.4 | 9.7 | 0.00 | 0.00 | 0.00 | 44 | 1010.0 |
| 20260506144340 | 10 | 244 | 3.2 | 8.0 | 0.00 | 0.00 | 0.00 | 46 | 1010.2 |
| 20260506143834 | 9 | 230 | 4.8 | 9.7 | 0.00 | 0.00 | 0.00 | 47 | 1010.2 |
| 20260506143600 | 8 | 201 | 6.4 | 9.7 | 0.00 | 0.00 | 0.00 | 48 | 1010.2 |
| 20260506142833 | 7 | 202 | 4.8 | 11.3 | 0.00 | 0.00 | 0.00 | 50 | 1010.3 |
| 20260506142334 | 7 | 201 | 8.0 | 11.3 | 0.00 | 0.00 | 0.00 | 51 | 1010.3 |
| 20260506141833 | 6 | 208 | 6.4 | 12.9 | 0.00 | 0.00 | 0.00 | 54 | 1010.3 |
| 20260506141328 | 5 | 203 | 9.7 | 12.9 | 0.00 | 0.00 | 0.00 | 56 | 1010.3 |
| 20260506140831 | 5 | 217 | 3.2 | 11.3 | 0.00 | 0.00 | 0.00 | 59 | 1010.5 |
| 20260506140558 | 4 | 160 | 4.8 | 11.3 | 0.00 | 0.00 | 0.00 | 60 | 1010.5 |
| 20260506135823 | 3 | 146 | 8.0 | 11.3 | 0.00 | 0.00 | 0.00 | 60 | 1010.5 |
| 20260506135324 | 3 | 171 | 8.0 | 14.5 | 0.00 | 0.00 | 0.00 | 60 | 1010.6 |
| 20260506134823 | 3 | 154 | 9.7 | 14.5 | 0.00 | 0.00 | 0.00 | 60 | 1010.7 |
| 20260506134323 | 3 | 176 | 9.7 | 14.5 | 0.00 | 0.00 | 0.00 | 61 | 1010.7 |
| 20260506133823 | 3 | 185 | 9.7 | 14.5 | 0.00 | 0.00 | 0.00 | 61 | 1010.7 |
| 20260506133321 | 2 | 192 | 11.3 | 16.1 | 0.00 | 0.00 | 0.00 | 62 | 1010.8 |
| 20260506132813 | 2 | 178 | 12.9 | 16.1 | 0.00 | 0.00 | 0.00 | 63 | 1010.9 |
| 20260506132312 | 1 | 188 | 11.3 | 14.5 | 0.00 | 0.00 | 0.00 | 64 | 1011.0 |
| 20260506131806 | 1 | 175 | 4.8 | 11.3 | 0.00 | 0.00 | 0.00 | 64 | 1011.0 |
| 20260506131304 | 1 | 162 | 8.0 | 14.5 | 0.00 | 0.00 | 0.00 | 64 | 1011.0 |
| 20260506130806 | 1 | 149 | 9.7 | 14.5 | 0.00 | 0.00 | 0.00 | 63 | 1010.9 |
| 20260506130302 | 1 | 173 | 9.7 | 12.9 | 0.00 | 0.00 | 0.00 | 64 | 1010.9 |
| 20260506130033 | 1 | 165 | 8.0 | 12.9 | 0.00 | 0.00 | 0.00 | 63 | 1010.9 |
| 20260506125258 | 1 | 150 | 6.4 | 12.9 | 0.00 | 0.00 | 0.00 | 62 | 1010.9 |
| 20260506124754 | 1 | 149 | 9.7 | 11.3 | 0.00 | 0.00 | 0.00 | 61 | 1011.0 |
| 20260506124515 | 1 | 138 | 8.0 | 11.3 | 0.00 | 0.00 | 0.00 | 61 | 1011.0 |
| 20260506123752 | 0 | 150 | 8.0 | 11.3 | 0.00 | 0.00 | 0.00 | 61 | 1011.2 |
| 20260506123244 | 0 | 148 | 6.4 | 11.3 | 0.00 | 0.00 | 0.00 | 60 | 1011.0 |
| 20260506122744 | 0 | 149 | 6.4 | 11.3 | 0.00 | 0.00 | 0.00 | 59 | 1010.9 |
| 20260506122239 | 1 | 190 | 6.4 | 12.9 | 0.00 | 0.00 | 0.00 | 59 | 1010.8 |
| 20260506121739 | 1 | 177 | 9.7 | 14.5 | 0.00 | 0.00 | 0.00 | 59 | 1010.8 |
| 20260506121236 | 1 | 188 | 9.7 | 16.1 | 0.00 | 0.00 | 0.00 | 59 | 1010.8 |
| 20260506120735 | 1 | 189 | 12.9 | 17.7 | 0.00 | 0.00 | 0.00 | 59 | 1011.2 |
| 20260506120229 | 1 | 182 | 14.5 | 20.9 | 0.00 | 0.00 | 0.00 | 59 | 1011.0 |
| 20260506115950 | 0 | 192 | 16.1 | 20.9 | 0.00 | 0.00 | 0.00 | 59 | 1011.0 |
| 20260506115226 | 0 | 193 | 17.7 | 22.5 | 0.00 | 0.00 | 0.00 | 60 | 1011.2 |
| 20260506114723 | 0 | 186 | 16.1 | 22.5 | 0.00 | 0.00 | 0.00 | 60 | 1011.2 |
| 20260506114219 | 0 | 185 | 14.5 | 22.5 | 0.00 | 0.00 | 0.00 | 61 | 1011.4 |
| 20260506113716 | 0 | 183 | 14.5 | 24.1 | 0.00 | 0.00 | 0.00 | 61 | 1011.6 |
| 20260506113218 | 0 | 171 | 16.1 | 24.1 | 0.00 | 0.00 | 0.00 | 62 | 1011.6 |
| 20260506112714 | 0 | 179 | 14.5 | 17.7 | 0.00 | 0.00 | 0.00 | 62 | 1011.6 |
| 20260506112212 | 0 | 155 | 11.3 | 17.7 | 0.00 | 0.00 | 0.00 | 61 | 1011.7 |
| 20260506111710 | 0 | 157 | 14.5 | 17.7 | 0.00 | 0.00 | 0.00 | 61 | 1011.9 |
| 20260506111206 | 0 | 144 | 12.9 | 16.1 | 0.00 | 0.00 | 0.00 | 60 | 1011.9 |
| 20260506110701 | 0 | 158 | 12.9 | 19.3 | 0.00 | 0.00 | 0.00 | 60 | 1011.9 |
| 20260506110157 | 0 | 150 | 12.9 | 19.3 | 0.00 | 0.00 | 0.00 | 61 | 1012.0 |
| 20260506105919 | 0 | 153 | 14.5 | 17.7 | 0.00 | 0.00 | 0.00 | 60 | 1012.1 |
| 20260506105155 | 0 | 158 | 12.9 | 17.7 | 0.00 | 0.00 | 0.00 | 60 | 1012.1 |
| 20260506104652 | 0 | 169 | 12.9 | 17.7 | 0.00 | 0.00 | 0.00 | 60 | 1012.3 |
| 20260506104154 | 0 | 162 | 14.5 | 20.9 | 0.00 | 0.00 | 0.00 | 60 | 1012.4 |
| 20260506103911 | 0 | 155 | 16.1 | 20.9 | 0.00 | 0.00 | 0.00 | 60 | 1012.4 |
| 20260506103415 | 0 | 151 | 17.7 | 22.5 | 0.00 | 0.00 | 0.00 | 61 | 1012.4 |
| 20260506102648 | 0 | 154 | 19.3 | 27.4 | 0.00 | 0.00 | 0.00 | 61 | 1012.5 |
| 20260506102148 | 0 | 157 | 17.7 | 27.4 | 0.00 | 0.00 | 0.00 | 62 | 1012.5 |
| 20260506101647 | 0 | 168 | 16.1 | 25.7 | 0.00 | 0.00 | 0.00 | 62 | 1012.6 |
| 20260506101146 | 0 | 167 | 19.3 | 25.7 | 0.00 | 0.00 | 0.00 | 63 | 1012.6 |
| 20260506100645 | 0 | 167 | 17.7 | 22.5 | 0.00 | 0.00 | 0.00 | 63 | 1012.7 |
| 20260506100146 | 0 | 158 | 17.7 | 22.5 | 0.00 | 0.00 | 0.00 | 64 | 1012.8 |
| 20260506095642 | 0 | 165 | 14.5 | 20.9 | 0.00 | 0.00 | 0.00 | 64 | 1012.9 |
| 20260506095141 | 0 | 175 | 12.9 | 17.7 | 0.00 | 0.00 | 0.00 | 64 | 1013.1 |
| 20260506094637 | -1 | 170 | 12.9 | 20.9 | 0.00 | 0.00 | 0.00 | 65 | 1013.4 |
| 20260506094133 | -1 | 155 | 14.5 | 24.1 | 0.00 | 0.00 | 0.00 | 65 | 1013.3 |
| 20260506093630 | -1 | 172 | 14.5 | 24.1 | 0.00 | 0.00 | 0.00 | 65 | 1013.4 |
| 20260506093127 | -1 | 173 | 11.3 | 19.3 | 0.00 | 0.00 | 0.00 | 65 | 1013.5 |
| 20260506092627 | -1 | 161 | 11.3 | 16.1 | 0.00 | 0.00 | 0.00 | 65 | 1013.7 |
| 20260506092124 | -1 | 157 | 12.9 | 17.7 | 0.00 | 0.00 | 0.00 | 65 | 1013.7 |
| 20260506091621 | -1 | 168 | 12.9 | 24.1 | 0.00 | 0.00 | 0.00 | 66 | 1013.7 |
| 20260506091117 | -1 | 155 | 16.1 | 24.1 | 0.00 | 0.00 | 0.00 | 67 | 1013.7 |
| 20260506090618 | -1 | 178 | 16.1 | 22.5 | 0.00 | 0.00 | 0.00 | 67 | 1013.8 |
| 20260506090340 | -1 | 161 | 12.9 | 17.7 | 0.00 | 0.00 | 0.00 | 67 | 1013.9 |
| 20260506085847 | -1 | 173 | 6.4 | 9.7 | 0.00 | 0.00 | 0.00 | 67 | 1014.0 |
| 20260506085111 | -1 | 173 | 6.4 | 9.7 | 0.00 | 0.00 | 0.00 | 67 | 1014.0 |
| 20260506084609 | -1 | 175 | 8.0 | 11.3 | 0.00 | 0.00 | 0.00 | 67 | 1014.0 |
| 20260506084110 | -1 | 172 | 6.4 | 11.3 | 0.00 | 0.00 | 0.00 | 67 | 1014.1 |
| 20260506083605 | -1 | 176 | 9.7 | 11.3 | 0.00 | 0.00 | 0.00 | 67 | 1014.3 |
| 20260506083107 | -1 | 182 | 9.7 | 14.5 | 0.00 | 0.00 | 0.00 | 67 | 1014.3 |
| 20260506082601 | -1 | 172 | 9.7 | 14.5 | 0.00 | 0.00 | 0.00 | 67 | 1014.4 |
| 20260506082102 | -1 | 174 | 11.3 | 14.5 | 0.00 | 0.00 | 0.00 | 67 | 1014.4 |
| 20260506081556 | -1 | 174 | 11.3 | 14.5 | 0.00 | 0.00 | 0.00 | 67 | 1014.4 |
| 20260506081313 | -1 | 175 | 9.7 | 12.9 | 0.00 | 0.00 | 0.00 | 67 | 1014.5 |
| 20260506080552 | -1 | 175 | 9.7 | 12.9 | 0.00 | 0.00 | 0.00 | 66 | 1014.5 |
| 20260506073300 | -1 | 177 | 6.4 | 9.7 | 0.00 | 0.00 | 0.00 | 63 | 1015.3 |
| 20260506072530 | -1 | 175 | 8.0 | 11.3 | 0.00 | 0.00 | 0.00 | 63 | 1015.3 |
| 20260506072244 | -1 | 163 | 8.0 | 11.3 | 0.00 | 0.00 | 0.00 | 63 | 1015.3 |
| 20260506071524 | 0 | 182 | 9.7 | 11.3 | 0.00 | 0.00 | 0.00 | 62 | 1015.5 |
| 20260506071024 | 0 | 173 | 8.0 | 11.3 | 0.00 | 0.00 | 0.00 | 62 | 1015.5 |
| 20260506070522 | 0 | 167 | 6.4 | 16.1 | 0.00 | 0.00 | 0.00 | 62 | 1015.6 |
| 20260506062504 | 0 | 170 | 9.7 | 14.5 | 0.00 | 0.00 | 0.00 | 60 | 1015.7 |
| 20260506062452 | 0 | 162 | 8.0 | 14.5 | 0.00 | 0.00 | 0.00 | 59 | 1015.7 |
| 20260506061457 | 0 | 173 | 6.4 | 9.7 | 0.00 | 0.00 | 0.00 | 59 | 1015.8 |
| 20260506060956 | 0 | 167 | 4.8 | 11.3 | 0.00 | 0.00 | 0.00 | 59 | 1015.8 |
| 20260506060452 | 0 | 153 | 8.0 | 11.3 | 0.00 | 0.00 | 0.00 | 58 | 1015.9 |
| 20260506060222 | 0 | 161 | 6.4 | 9.7 | 0.00 | 0.00 | 0.00 | 58 | 1016.0 |